Erie, Colorado
Current Conditions -  °F | °C
As of 6:15 AM on Thursday 30 Oct 2014 (Local Time) from KEIK Reporting Station
Clear Clear  
Wind Chill: 34°   Ceiling: Unl
Heat Index: 34°   Visibility: 10mi
Dew Point: 26°   Wind: 0mph
Humidity: 73%   Direction: NA
Pressure: 30.35"   Gusts: NA
Location:  40.05°N, 105.05°W
Report Text: KEIK 301215Z AUTO 00000KT 10SM CLR 01/M03 A3035 RMK AO2 T00101034
Loading
Personal Weather Stations






























Interactive Weather Map
Tropical Storm Tracking
New forecast layout! Learn more

10-Day Weather Forecast

Advertisements
Track Severe Weather on mobile